createdAt,value
2019-02-27T09:12:51.712Z,36.15
2019-02-27T09:15:23.538Z,45.21
2019-02-27T09:17:54.756Z,49.15
2019-02-27T09:20:27.550Z,51.49
2019-02-27T09:22:59.078Z,51.91
2019-02-27T09:25:30.207Z,51.83
2019-02-27T09:28:03.441Z,51.83
2019-02-27T09:30:34.804Z,52.14
2019-02-27T09:33:06.023Z,52.26
2019-02-27T09:35:40.779Z,52.76
2019-02-27T09:38:13.637Z,53.42
2019-02-27T09:40:44.901Z,53.03
2019-02-27T09:43:17.794Z,52.50
2019-02-27T09:45:51.331Z,52.46
2019-02-27T09:48:22.839Z,53.41
2019-02-27T09:50:54.248Z,54.17
2019-02-27T09:53:28.285Z,54.20
2019-02-27T09:56:05.106Z,53.96
2019-02-27T09:58:36.825Z,55.29
2019-02-27T10:01:13.834Z,55.71
2019-02-27T10:03:45.254Z,55.26
2019-02-27T10:06:18.666Z,55.18
2019-02-27T10:08:50.486Z,55.59
2019-02-27T10:11:22.450Z,54.24
2019-02-27T10:13:54.338Z,53.26
2019-02-27T10:16:25.823Z,52.78
2019-02-27T10:18:57.737Z,52.78
2019-02-27T10:21:33.943Z,52.57
2019-02-27T10:24:06.038Z,52.57
2019-02-27T10:26:39.792Z,50.87
2019-02-27T10:29:13.420Z,50.87
2019-02-27T10:31:44.920Z,50.63
2019-02-27T10:34:19.152Z,49.49
2019-02-27T10:36:51.695Z,48.80
2019-02-27T10:39:23.267Z,47.91
2019-02-27T10:41:54.951Z,48.06
2019-02-27T10:44:26.441Z,47.94
2019-02-27T10:47:00.678Z,48.59
2019-02-27T10:49:32.647Z,49.02
2019-02-27T10:52:04.002Z,50.08
2019-02-27T10:54:37.056Z,52.15
2019-02-27T10:57:08.708Z,52.19
2019-02-27T10:59:40.026Z,50.53
2019-02-27T11:02:12.395Z,51.04
2019-02-27T11:04:46.843Z,49.80
2019-02-27T11:07:18.507Z,48.92
2019-02-27T11:09:49.883Z,48.33
2019-02-27T11:12:21.401Z,48.13
2019-02-27T11:14:52.778Z,48.20
2019-02-27T11:17:24.354Z,48.31
2019-02-27T11:19:57.512Z,48.07
2019-02-27T11:22:31.386Z,48.98
2019-02-27T11:25:03.790Z,48.98
2019-02-27T11:27:36.371Z,49.70
2019-02-27T11:30:14.320Z,49.70
2019-02-27T11:32:45.483Z,48.87
2019-02-27T11:35:16.835Z,48.87
2019-02-27T11:37:48.129Z,49.10
2019-02-27T11:40:21.723Z,48.94
2019-02-27T11:42:53.172Z,48.12
2019-02-27T11:45:25.822Z,48.52
2019-02-27T11:47:57.328Z,48.70
2019-02-27T11:50:28.661Z,49.05
2019-02-27T11:53:02.715Z,49.05
2019-02-27T11:55:33.292Z,48.11
2019-02-27T12:01:08.375Z,48.02
2019-02-27T12:03:48.120Z,48.61
2019-02-27T12:06:24.355Z,49.06
2019-02-27T12:09:01.094Z,48.95
2019-02-27T12:11:37.452Z,49.84
2019-02-27T12:14:21.209Z,50.21
2019-02-27T12:16:58.220Z,50.21
2019-02-27T12:19:29.510Z,50.24
2019-02-27T12:22:01.451Z,49.71
2019-02-27T12:24:33.764Z,50.32
2019-02-27T12:27:07.399Z,50.88
2019-02-27T12:29:40.150Z,50.65
2019-02-27T12:32:11.556Z,51.40
2019-02-27T12:34:42.805Z,50.98
2019-02-27T12:37:23.909Z,51.75
2019-02-27T12:39:49.647Z,52.19
2019-02-27T12:42:21.142Z,52.35
2019-02-27T12:44:54.567Z,52.06
2019-02-27T12:47:26.244Z,51.87
2019-02-27T12:49:57.771Z,51.87
2019-02-27T12:52:29.415Z,51.62
2019-02-27T12:55:01.782Z,51.62
2019-02-27T12:57:35.049Z,52.46
2019-02-27T13:00:13.879Z,52.00
2019-02-27T13:02:45.386Z,52.36
2019-02-27T13:05:18.403Z,52.00
2019-02-27T13:07:50.080Z,52.02
2019-02-27T13:10:23.873Z,52.28
2019-02-27T13:12:55.351Z,52.12
2019-02-27T13:15:28.932Z,52.01
2019-02-27T13:18:00.449Z,51.98
2019-02-27T13:20:34.207Z,51.44
2019-02-27T13:23:05.697Z,51.44
2019-02-27T13:25:37.498Z,50.58
2019-02-27T13:28:08.876Z,50.52
2019-02-27T13:30:41.570Z,50.52
2019-02-27T13:33:13.412Z,50.98
2019-02-27T13:35:45.447Z,50.98
2019-02-27T13:38:18.376Z,51.39
2019-02-27T13:40:50.126Z,51.08
2019-02-27T13:43:24.391Z,51.08
2019-02-27T13:45:55.206Z,50.94
2019-02-27T13:48:26.692Z,50.70
2019-02-27T13:50:59.352Z,51.66
2019-02-27T13:53:31.996Z,53.09
2019-02-27T13:56:03.208Z,53.37
2019-02-27T13:58:36.620Z,54.13
2019-02-27T14:01:08.273Z,54.39
2019-02-27T14:03:39.653Z,54.98
2019-02-27T14:06:11.035Z,54.98
2019-02-27T14:08:43.862Z,54.77
2019-02-27T14:11:15.465Z,55.24
2019-02-27T14:13:47.036Z,55.24
2019-02-27T14:16:18.381Z,56.76
2019-02-27T14:18:50.594Z,57.29
2019-02-27T14:21:22.174Z,58.44
2019-02-27T14:23:53.587Z,58.44
2019-02-27T14:26:25.143Z,58.57
2019-02-27T14:28:56.836Z,58.88
2019-02-27T14:31:33.469Z,59.08
2019-02-27T14:34:05.243Z,59.21
2019-02-27T14:36:39.397Z,59.20
2019-02-27T14:39:15.079Z,59.50
2019-02-27T14:41:48.773Z,59.67
2019-02-27T14:44:21.070Z,59.72
2019-02-27T14:46:53.758Z,60.01
2019-02-27T14:49:27.277Z,59.58
2019-02-27T14:52:02.852Z,59.70
2019-02-27T14:54:52.634Z,59.62
2019-02-27T14:57:20.390Z,59.71
2019-02-27T14:59:55.913Z,59.84
2019-02-27T15:02:27.651Z,60.28
2019-02-27T15:04:58.993Z,60.52
2019-02-27T15:07:30.446Z,60.64
2019-02-27T15:10:01.876Z,60.72
2019-02-27T15:12:34.781Z,60.81
2019-02-27T15:15:10.168Z,60.79
2019-02-27T15:17:41.700Z,61.53
2019-02-27T15:20:18.207Z,61.31
2019-02-27T15:22:52.460Z,61.53
2019-02-27T15:25:22.872Z,61.73
2019-02-27T15:27:58.792Z,61.93
2019-02-27T15:30:32.358Z,61.84
2019-02-27T15:33:05.379Z,61.93
2019-02-27T15:35:37.400Z,61.99
2019-02-27T15:38:11.768Z,62.15
2019-02-27T15:40:42.811Z,62.18
2019-02-27T15:43:17.314Z,62.66
2019-02-27T15:45:49.118Z,62.60
2019-02-27T15:48:20.579Z,62.52
2019-02-27T15:50:57.209Z,62.86
2019-02-27T15:53:31.211Z,62.69
2019-02-27T15:56:05.458Z,62.73
2019-02-27T15:58:36.655Z,62.72
2019-02-27T16:01:09.744Z,62.58
2019-02-27T16:03:42.038Z,62.59
2019-02-27T16:06:16.413Z,62.62
2019-02-27T16:08:48.019Z,62.63
2019-02-27T16:11:20.060Z,62.96
2019-02-27T16:13:51.523Z,63.07
2019-02-27T16:16:23.514Z,63.05
2019-02-27T16:18:56.098Z,63.18
2019-02-27T16:21:27.486Z,62.97
2019-02-27T16:24:00.715Z,62.91
2019-02-27T16:26:32.708Z,63.11
2019-02-27T16:29:04.632Z,63.19
2019-02-27T16:31:37.131Z,63.19
2019-02-27T16:34:09.857Z,63.22
2019-02-27T16:36:41.215Z,62.96
2019-02-27T16:39:13.104Z,62.50
2019-02-27T16:41:45.187Z,62.64
2019-02-27T16:44:21.567Z,62.50
2019-02-27T16:46:51.169Z,62.24
2019-02-27T16:49:22.714Z,62.30
2019-02-27T16:51:54.330Z,61.98
2019-02-27T16:54:27.618Z,62.16
2019-02-27T16:56:59.924Z,62.35
2019-02-27T16:59:31.300Z,62.19
2019-02-27T17:02:04.757Z,62.42
2019-02-27T17:04:36.642Z,62.45
2019-02-27T17:07:09.918Z,62.22
2019-02-27T17:09:43.884Z,62.37
2019-02-27T17:12:16.367Z,62.38
2019-02-27T17:14:48.861Z,62.34
2019-02-27T17:17:20.853Z,62.26
2019-02-27T17:19:53.114Z,62.21
2019-02-27T17:22:24.700Z,62.24
2019-02-27T17:24:57.098Z,62.18
2019-02-27T17:27:31.415Z,61.85
2019-02-27T17:30:02.766Z,61.80
2019-02-27T17:32:34.822Z,61.92
2019-02-27T17:35:06.981Z,61.81
2019-02-27T17:37:39.997Z,61.66
2019-02-27T17:40:14.690Z,61.88
2019-02-27T17:42:53.186Z,61.98
2019-02-27T17:45:26.487Z,62.11
2019-02-27T17:47:57.755Z,62.16
2019-02-27T17:50:31.677Z,62.27
2019-02-27T17:53:02.470Z,62.22
2019-02-27T17:55:34.000Z,62.58
2019-02-27T17:58:05.429Z,62.48
2019-02-27T18:00:51.126Z,62.67
2019-02-27T18:03:20.971Z,62.97
2019-02-27T18:05:52.796Z,62.68
2019-02-27T18:08:24.375Z,62.77
2019-02-27T18:10:55.821Z,62.84
2019-02-27T18:13:27.534Z,62.99
2019-02-27T18:15:59.331Z,63.22
2019-02-27T18:18:30.811Z,62.95
2019-02-27T18:21:02.201Z,63.01
2019-02-27T18:23:37.056Z,62.86
2019-02-27T18:26:15.652Z,63.05
2019-02-27T18:28:45.748Z,62.79
2019-02-27T18:31:17.661Z,62.69
2019-02-27T18:33:50.287Z,63.07
2019-02-27T18:36:22.430Z,63.11
2019-02-27T18:38:54.518Z,63.26
2019-02-27T18:41:26.119Z,63.31
2019-02-27T18:43:58.176Z,63.51
2019-02-27T18:46:30.063Z,63.36
2019-02-27T18:49:01.601Z,63.34
2019-02-27T18:51:33.978Z,63.36
2019-02-27T18:54:05.395Z,63.76
2019-02-27T18:56:40.290Z,64.01
2019-02-27T18:59:10.115Z,64.10
2019-02-27T19:01:45.232Z,64.08
2019-02-27T19:04:15.526Z,64.36
2019-02-27T19:06:47.084Z,64.48
2019-02-27T19:09:18.581Z,64.91
2019-02-27T19:11:50.888Z,64.82
2019-02-27T19:14:24.221Z,65.20
2019-02-27T19:16:55.939Z,65.97
2019-02-27T19:19:27.456Z,66.02
2019-02-27T19:21:59.370Z,65.73
2019-02-27T19:24:32.514Z,66.03
2019-02-27T19:27:04.330Z,66.30
2019-02-27T19:29:36.961Z,66.05
2019-02-27T19:32:09.669Z,66.00
2019-02-27T19:34:44.430Z,66.10
2019-02-27T19:37:18.788Z,65.88
2019-02-27T19:39:50.326Z,66.14
2019-02-27T19:42:22.918Z,66.24
2019-02-27T19:44:56.289Z,66.22
2019-02-27T19:47:28.196Z,66.25
2019-02-27T19:50:02.611Z,66.18
2019-02-27T19:52:35.153Z,65.92
2019-02-27T19:55:08.208Z,65.61
2019-02-27T19:57:42.479Z,65.50
2019-02-27T20:00:33.588Z,65.27
2019-02-27T20:03:01.798Z,65.54
2019-02-27T20:05:33.407Z,65.72
2019-02-27T20:08:09.932Z,66.04
2019-02-27T20:10:38.103Z,66.05
2019-02-27T20:13:09.575Z,66.38
2019-02-27T20:15:42.799Z,66.43
2019-02-27T20:18:17.373Z,66.23
2019-02-27T20:20:48.727Z,66.38
2019-02-27T20:23:20.196Z,66.52
2019-02-27T20:25:51.728Z,66.61
2019-02-27T20:28:24.366Z,66.77
2019-02-27T20:30:55.735Z,67.19
2019-02-27T20:33:27.349Z,67.33
2019-02-27T20:36:00.302Z,67.74
2019-02-27T20:38:32.200Z,67.58
2019-02-27T20:41:06.016Z,67.69
2019-02-27T20:43:38.072Z,67.54
2019-02-27T20:46:10.412Z,67.54
2019-02-27T20:48:42.108Z,67.26
2019-02-27T20:51:13.837Z,67.41
2019-02-27T20:53:45.473Z,67.90
2019-02-27T20:56:16.695Z,67.57
2019-02-27T20:58:51.045Z,67.50
2019-02-27T21:01:21.416Z,67.46
2019-02-27T21:03:52.833Z,67.63
2019-02-27T21:06:24.395Z,67.50
2019-02-27T21:08:55.685Z,67.71
2019-02-27T21:11:29.807Z,67.64
2019-02-27T21:14:02.514Z,67.64
2019-02-27T21:16:34.417Z,67.85
2019-02-27T21:19:05.835Z,67.58
2019-02-27T21:21:37.127Z,67.57
2019-02-27T21:24:09.454Z,67.62
2019-02-27T21:26:40.842Z,67.55
2019-02-27T21:29:12.880Z,67.67
2019-02-27T21:31:44.257Z,67.73
2019-02-27T21:34:19.294Z,67.72
2019-02-27T21:36:49.016Z,67.72
2019-02-27T21:39:22.511Z,67.78
2019-02-27T21:41:53.726Z,67.52
2019-02-27T21:44:25.864Z,67.16
2019-02-27T21:46:59.383Z,67.24
2019-02-27T21:49:32.241Z,67.41
2019-02-27T21:52:04.067Z,67.33
2019-02-27T21:54:39.277Z,67.37
2019-02-27T21:57:11.737Z,67.74
2019-02-27T21:59:43.368Z,68.36
2019-02-27T22:02:16.017Z,69.06
2019-02-27T22:04:47.874Z,69.04
2019-02-27T22:07:19.461Z,69.33
2019-02-27T22:09:51.196Z,69.41
2019-02-27T22:12:22.602Z,69.60
2019-02-27T22:14:54.022Z,69.82
2019-02-27T22:17:26.664Z,70.09
2019-02-27T22:19:58.185Z,70.07
2019-02-27T22:22:30.030Z,70.12
2019-02-27T22:25:01.276Z,70.37
2019-02-27T22:27:32.535Z,70.55
2019-02-27T22:30:06.481Z,70.69
2019-02-27T22:32:37.792Z,70.66
2019-02-27T22:35:10.759Z,70.73
2019-02-27T22:37:42.518Z,70.85
2019-02-27T22:40:18.796Z,71.00
2019-02-27T22:42:50.189Z,70.93
2019-02-27T22:45:21.590Z,71.15
2019-02-27T22:47:54.628Z,70.63
2019-02-27T22:50:26.181Z,70.54
2019-02-27T22:52:57.556Z,70.51
2019-02-27T22:55:28.768Z,70.69
2019-02-27T22:58:00.006Z,70.72
2019-02-27T23:00:51.598Z,70.39
2019-02-27T23:03:33.358Z,70.17
2019-02-27T23:06:04.897Z,70.39
2019-02-27T23:08:36.223Z,70.26
2019-02-27T23:11:07.442Z,70.11
2019-02-27T23:13:38.905Z,70.11
2019-02-27T23:16:10.192Z,70.16
2019-02-27T23:18:41.498Z,70.12
2019-02-27T23:21:12.897Z,69.96
2019-02-27T23:23:45.248Z,70.06
2019-02-27T23:26:19.874Z,70.16
2019-02-27T23:28:49.642Z,69.97
2019-02-27T23:31:23.310Z,69.79
2019-02-27T23:33:54.754Z,69.60
2019-02-27T23:36:26.105Z,69.56
2019-02-27T23:38:57.401Z,69.52
2019-02-27T23:41:29.139Z,69.68
2019-02-27T23:44:00.495Z,69.87
2019-02-27T23:46:32.218Z,69.89
2019-02-27T23:49:06.525Z,69.96
2019-02-27T23:51:36.607Z,70.02
2019-02-27T23:54:08.058Z,69.85
2019-02-27T23:56:39.387Z,69.96
2019-02-27T23:59:10.898Z,69.44
